Time,TemperatureF,DewpointF,PressureIn,WindDirection,WindDirectionDegrees,WindSpeedMPH,WindSpeedGustMPH,Humidity,HourlyPrecipIn,Conditions,Clouds,dailyrainin,SoftwareType,DateUTC
2013-06-19 00:01:00,72.1,71.2,29.87,NW,315,6.0,6.9,97,0.00,,,0.31,meteobridge,2013-06-19 04:01:00,
2013-06-19 00:02:00,72.0,71.1,29.87,NW,315,5.4,6.0,97,0.00,,,0.31,meteobridge,2013-06-19 04:02:00,
2013-06-19 00:07:00,72.1,71.2,29.88,West,270,5.4,6.0,97,0.00,,,0.31,meteobridge,2013-06-19 04:07:00,
2013-06-19 00:13:00,72.1,71.2,29.88,North,0,4.5,5.4,97,0.00,,,0.31,meteobridge,2013-06-19 04:13:00,
2013-06-19 00:18:00,72.0,71.1,29.88,NW,315,5.4,5.4,97,0.00,,,0.31,meteobridge,2013-06-19 04:18:00,
2013-06-19 00:23:00,72.1,71.2,29.88,North,0,7.6,8.3,97,0.00,,,0.31,meteobridge,2013-06-19 04:23:00,
2013-06-19 00:28:00,72.1,71.2,29.88,NW,315,9.2,10.7,97,0.00,,,0.31,meteobridge,2013-06-19 04:28:00,
2013-06-19 00:33:00,72.0,71.1,29.88,West,270,9.2,12.1,97,0.01,,,0.32,meteobridge,2013-06-19 04:33:00,
2013-06-19 00:38:00,72.0,70.5,29.88,North,0,9.8,13.0,95,0.01,,,0.32,meteobridge,2013-06-19 04:38:00,
2013-06-19 00:43:00,72.0,70.2,29.88,North,0,6.9,11.4,94,0.01,,,0.32,meteobridge,2013-06-19 04:43:00,
2013-06-19 00:49:00,72.0,70.2,29.89,North,0,8.3,9.8,94,0.01,,,0.32,meteobridge,2013-06-19 04:49:00,
2013-06-19 00:54:00,71.8,70.0,29.88,North,0,9.2,9.2,94,0.01,,,0.32,meteobridge,2013-06-19 04:54:00,
2013-06-19 00:59:00,71.8,70.3,29.88,NW,315,6.0,7.6,95,0.01,,,0.32,meteobridge,2013-06-19 04:59:00,
2013-06-19 01:04:00,71.8,70.3,29.88,North,0,6.0,7.6,95,0.01,,,0.32,meteobridge,2013-06-19 05:04:00,
2013-06-19 01:09:00,71.6,70.2,29.88,NW,315,7.6,7.6,95,0.01,,,0.32,meteobridge,2013-06-19 05:09:00,
2013-06-19 01:14:00,71.6,70.2,29.88,North,0,10.7,10.7,95,0.01,,,0.32,meteobridge,2013-06-19 05:14:00,
2013-06-19 01:20:00,71.4,70.0,29.88,NW,315,7.6,9.8,95,0.01,,,0.32,meteobridge,2013-06-19 05:20:00,
2013-06-19 01:25:00,71.4,70.0,29.88,North,0,7.6,7.6,95,0.01,,,0.32,meteobridge,2013-06-19 05:25:00,
2013-06-19 01:30:00,71.4,70.0,29.89,NW,315,7.6,9.2,95,0.01,,,0.32,meteobridge,2013-06-19 05:30:00,
2013-06-19 01:35:00,71.4,70.2,29.89,North,0,5.4,9.2,96,0.00,,,0.32,meteobridge,2013-06-19 05:35:00,
2013-06-19 01:40:00,71.1,69.8,29.89,North,0,7.6,7.6,96,0.00,,,0.32,meteobridge,2013-06-19 05:40:00,
2013-06-19 01:45:00,71.1,69.6,29.89,NW,315,6.0,8.3,95,0.00,,,0.32,meteobridge,2013-06-19 05:45:00,
2013-06-19 01:51:00,71.1,69.6,29.89,North,0,6.0,6.0,95,0.00,,,0.32,meteobridge,2013-06-19 05:51:00,
2013-06-19 01:56:00,71.1,69.6,29.89,NW,315,5.4,5.4,95,0.00,,,0.32,meteobridge,2013-06-19 05:56:00,
2013-06-19 02:01:00,71.1,69.6,29.89,NW,315,6.0,6.0,95,0.00,,,0.32,meteobridge,2013-06-19 06:01:00,
2013-06-19 02:06:00,70.9,69.4,29.89,North,0,6.0,6.0,95,0.00,,,0.32,meteobridge,2013-06-19 06:06:00,
2013-06-19 02:11:00,70.7,69.3,29.88,NW,315,6.0,6.9,95,0.00,,,0.32,meteobridge,2013-06-19 06:11:00,
2013-06-19 02:16:00,70.7,69.3,29.89,NW,315,5.4,5.4,95,0.00,,,0.32,meteobridge,2013-06-19 06:16:00,
2013-06-19 02:22:00,70.5,69.1,29.89,NW,315,6.0,6.0,95,0.00,,,0.32,meteobridge,2013-06-19 06:22:00,
2013-06-19 02:27:00,70.5,68.7,29.89,NW,315,4.5,5.4,94,0.00,,,0.32,meteobridge,2013-06-19 06:27:00,
2013-06-19 02:32:00,70.5,68.7,29.89,North,0,5.4,6.0,94,0.00,,,0.32,meteobridge,2013-06-19 06:32:00,
2013-06-19 02:37:00,70.5,68.7,29.89,NW,315,5.4,5.4,94,0.00,,,0.32,meteobridge,2013-06-19 06:37:00,
2013-06-19 02:42:00,70.5,69.1,29.89,NW,315,4.5,5.4,95,0.00,,,0.32,meteobridge,2013-06-19 06:42:00,
2013-06-19 02:47:00,70.5,68.7,29.88,North,0,3.8,3.8,94,0.00,,,0.32,meteobridge,2013-06-19 06:47:00,
2013-06-19 02:53:00,70.3,68.9,29.88,North,0,1.6,1.6,95,0.00,,,0.32,meteobridge,2013-06-19 06:53:00,
2013-06-19 02:58:00,70.2,68.7,29.88,NNE,23,2.2,2.2,95,0.00,,,0.32,meteobridge,2013-06-19 06:58:00,
2013-06-19 03:03:00,70.0,68.7,29.89,NE,45,3.1,3.1,96,0.00,,,0.32,meteobridge,2013-06-19 07:03:00,
2013-06-19 03:08:00,69.8,68.5,29.88,NNE,23,3.8,3.8,96,0.00,,,0.32,meteobridge,2013-06-19 07:08:00,
2013-06-19 03:13:00,70.0,69.1,29.88,North,0,6.0,6.0,97,0.00,,,0.32,meteobridge,2013-06-19 07:13:00,
2013-06-19 03:18:00,70.0,68.7,29.88,North,0,6.0,6.0,96,0.00,,,0.32,meteobridge,2013-06-19 07:18:00,
2013-06-19 03:24:00,70.2,68.9,29.88,North,0,6.0,6.0,96,0.00,,,0.32,meteobridge,2013-06-19 07:24:00,
2013-06-19 03:29:00,70.3,69.1,29.88,NNW,338,7.6,7.6,96,0.00,,,0.32,meteobridge,2013-06-19 07:29:00,
2013-06-19 03:34:00,70.3,69.1,29.88,North,0,5.4,6.0,96,0.00,,,0.32,meteobridge,2013-06-19 07:34:00,
2013-06-19 03:39:00,70.2,68.7,29.88,North,0,6.0,6.0,95,0.00,,,0.32,meteobridge,2013-06-19 07:39:00,
2013-06-19 03:44:00,70.2,68.9,29.89,NW,315,6.9,6.9,96,0.00,,,0.32,meteobridge,2013-06-19 07:44:00,
2013-06-19 03:49:00,70.0,68.7,29.89,North,0,4.5,6.0,96,0.00,,,0.32,meteobridge,2013-06-19 07:49:00,
2013-06-19 03:55:00,70.0,68.7,29.89,North,0,5.4,5.4,96,0.00,,,0.32,meteobridge,2013-06-19 07:55:00,
2013-06-19 04:00:00,69.8,68.5,29.89,North,0,3.8,3.8,96,0.00,,,0.32,meteobridge,2013-06-19 08:00:00,
2013-06-19 04:05:00,69.8,68.9,29.88,North,0,1.6,2.2,97,0.00,,,0.32,meteobridge,2013-06-19 08:05:00,
2013-06-19 04:10:00,69.8,68.9,29.88,East,90,2.2,3.1,97,0.00,,,0.32,meteobridge,2013-06-19 08:10:00,
2013-06-19 04:15:00,69.4,68.9,29.89,SE,135,0.7,0.7,98,0.00,,,0.32,meteobridge,2013-06-19 08:15:00,
2013-06-19 04:20:00,69.3,68.7,29.89,West,270,1.6,1.6,98,0.00,,,0.32,meteobridge,2013-06-19 08:20:00,
2013-06-19 04:26:00,69.3,68.9,29.89,NNE,23,2.2,3.1,99,0.00,,,0.32,meteobridge,2013-06-19 08:26:00,
2013-06-19 04:31:00,69.3,68.9,29.89,NE,45,2.2,3.8,99,0.00,,,0.32,meteobridge,2013-06-19 08:31:00,
2013-06-19 04:36:00,69.3,68.9,29.89,North,0,2.2,2.2,99,0.00,,,0.32,meteobridge,2013-06-19 08:36:00,
2013-06-19 04:41:00,69.3,68.9,29.89,NW,315,5.4,5.4,99,0.00,,,0.32,meteobridge,2013-06-19 08:41:00,
2013-06-19 04:46:00,69.4,69.1,29.90,North,0,4.5,5.4,99,0.00,,,0.32,meteobridge,2013-06-19 08:46:00,
2013-06-19 04:51:00,69.6,69.1,29.90,NW,315,5.4,5.4,98,0.00,,,0.32,meteobridge,2013-06-19 08:51:00,
2013-06-19 04:57:00,69.6,68.7,29.90,NW,315,3.8,6.0,97,0.00,,,0.32,meteobridge,2013-06-19 08:57:00,
2013-06-19 05:02:00,69.6,68.7,29.90,NW,315,3.8,6.0,97,0.00,,,0.32,meteobridge,2013-06-19 09:02:00,
2013-06-19 05:07:00,69.6,68.7,29.91,NW,315,5.4,5.4,97,0.00,,,0.32,meteobridge,2013-06-19 09:07:00,
2013-06-19 05:12:00,69.4,68.5,29.90,NW,315,5.4,6.0,97,0.00,,,0.32,meteobridge,2013-06-19 09:12:00,
2013-06-19 05:17:00,69.6,68.7,29.90,NW,315,5.4,6.9,97,0.00,,,0.32,meteobridge,2013-06-19 09:17:00,
2013-06-19 05:22:00,69.4,68.5,29.91,NW,315,6.0,6.0,97,0.00,,,0.32,meteobridge,2013-06-19 09:22:00,
2013-06-19 05:28:00,69.3,68.7,29.91,North,0,5.4,6.0,98,0.00,,,0.32,meteobridge,2013-06-19 09:28:00,
2013-06-19 05:33:00,69.3,68.7,29.91,North,0,4.5,5.4,98,0.00,,,0.32,meteobridge,2013-06-19 09:33:00,
2013-06-19 05:38:00,69.1,68.5,29.91,North,0,5.4,5.4,98,0.00,,,0.32,meteobridge,2013-06-19 09:38:00,
2013-06-19 05:43:00,69.1,68.7,29.91,NNW,338,3.8,3.8,99,0.00,,,0.32,meteobridge,2013-06-19 09:43:00,
2013-06-19 05:48:00,69.1,68.7,29.91,NW,315,4.5,4.5,99,0.00,,,0.32,meteobridge,2013-06-19 09:48:00,
2013-06-19 05:54:00,68.9,68.5,29.91,North,0,4.5,5.4,99,0.00,,,0.32,meteobridge,2013-06-19 09:54:00,
2013-06-19 05:59:00,68.9,68.5,29.91,North,0,5.4,5.4,99,0.00,,,0.32,meteobridge,2013-06-19 09:59:00,
2013-06-19 06:04:00,68.9,68.5,29.92,NW,315,5.4,5.4,99,0.00,,,0.32,meteobridge,2013-06-19 10:04:00,
2013-06-19 06:09:00,69.1,68.7,29.92,North,0,5.4,5.4,99,0.00,,,0.32,meteobridge,2013-06-19 10:09:00,
2013-06-19 06:14:00,68.9,68.5,29.92,North,0,5.4,6.0,99,0.00,,,0.32,meteobridge,2013-06-19 10:14:00,
2013-06-19 06:19:00,68.7,68.4,29.93,North,0,5.4,5.4,99,0.00,,,0.32,meteobridge,2013-06-19 10:19:00,
2013-06-19 06:24:00,68.7,68.4,29.93,East,90,3.1,3.1,99,0.00,,,0.32,meteobridge,2013-06-19 10:24:00,
2013-06-19 06:30:00,68.7,68.4,29.93,West,270,1.6,1.6,99,0.00,,,0.32,meteobridge,2013-06-19 10:30:00,
2013-06-19 06:35:00,68.7,68.4,29.93,NW,315,4.5,4.5,99,0.00,,,0.32,meteobridge,2013-06-19 10:35:00,
2013-06-19 06:40:00,68.9,68.5,29.94,North,0,4.5,5.4,99,0.00,,,0.32,meteobridge,2013-06-19 10:40:00,
2013-06-19 06:45:00,68.9,68.5,29.95,NW,315,6.0,6.9,99,0.00,,,0.32,meteobridge,2013-06-19 10:45:00,
2013-06-19 06:50:00,68.9,68.5,29.95,North,0,3.8,3.8,99,0.00,,,0.32,meteobridge,2013-06-19 10:50:00,
2013-06-19 06:56:00,68.9,68.4,29.95,North,0,4.5,6.0,98,0.00,,,0.32,meteobridge,2013-06-19 10:56:00,
2013-06-19 07:01:00,69.3,68.7,29.95,North,0,3.1,3.1,98,0.00,,,0.32,meteobridge,2013-06-19 11:01:00,
2013-06-19 07:06:00,69.8,68.9,29.95,North,0,3.1,3.8,97,0.00,,,0.32,meteobridge,2013-06-19 11:06:00,
2013-06-19 07:11:00,70.9,69.6,29.95,North,0,7.6,7.6,96,0.00,,,0.32,meteobridge,2013-06-19 11:11:00,
2013-06-19 07:16:00,71.6,69.1,29.96,NE,45,3.1,5.4,92,0.00,,,0.32,meteobridge,2013-06-19 11:16:00,
2013-06-19 07:21:00,72.7,68.9,29.96,NW,315,3.8,6.0,88,0.00,,,0.32,meteobridge,2013-06-19 11:21:00,
2013-06-19 07:27:00,74.3,69.8,29.96,NE,45,3.1,3.1,86,0.00,,,0.32,meteobridge,2013-06-19 11:27:00,
2013-06-19 07:32:00,74.8,69.6,29.96,NE,45,3.8,3.8,84,0.00,,,0.32,meteobridge,2013-06-19 11:32:00,
2013-06-19 07:37:00,74.5,68.5,29.96,North,0,4.5,6.9,82,0.00,,,0.32,meteobridge,2013-06-19 11:37:00,
2013-06-19 07:42:00,73.9,68.7,29.96,North,0,6.0,6.9,84,0.00,,,0.32,meteobridge,2013-06-19 11:42:00,
2013-06-19 07:47:00,73.6,68.7,29.97,NNW,338,7.6,7.6,85,0.00,,,0.32,meteobridge,2013-06-19 11:47:00,
2013-06-19 07:52:00,72.7,67.8,29.97,North,0,6.0,7.6,85,0.00,,,0.32,meteobridge,2013-06-19 11:52:00,
2013-06-19 07:58:00,73.2,68.4,29.97,North,0,6.0,9.2,85,0.00,,,0.32,meteobridge,2013-06-19 11:58:00,
2013-06-19 08:03:00,73.6,69.1,29.97,North,0,6.0,6.9,86,0.00,,,0.32,meteobridge,2013-06-19 12:03:00,
2013-06-19 08:08:00,74.1,69.3,29.97,North,0,7.6,7.6,85,0.00,,,0.32,meteobridge,2013-06-19 12:08:00,
2013-06-19 08:13:00,74.5,69.3,29.97,North,0,6.0,6.0,84,0.00,,,0.32,meteobridge,2013-06-19 12:13:00,
2013-06-19 08:18:00,74.1,68.5,29.97,North,0,6.9,13.0,83,0.00,,,0.32,meteobridge,2013-06-19 12:18:00,
2013-06-19 08:23:00,74.8,69.6,29.98,NE,45,5.4,5.4,84,0.00,,,0.32,meteobridge,2013-06-19 12:23:00,
2013-06-19 08:29:00,75.6,68.9,29.98,NE,45,4.5,6.0,80,0.00,,,0.32,meteobridge,2013-06-19 12:29:00,
2013-06-19 08:34:00,76.3,68.9,29.98,North,0,6.0,7.6,78,0.00,,,0.32,meteobridge,2013-06-19 12:34:00,
2013-06-19 08:39:00,76.1,69.1,29.98,North,0,4.5,6.0,79,0.00,,,0.32,meteobridge,2013-06-19 12:39:00,
2013-06-19 08:44:00,77.0,68.9,29.98,NE,45,4.5,6.0,76,0.00,,,0.32,meteobridge,2013-06-19 12:44:00,
2013-06-19 08:49:00,77.7,69.1,29.99,North,0,4.5,5.4,75,0.00,,,0.32,meteobridge,2013-06-19 12:49:00,
2013-06-19 08:54:00,77.9,68.5,29.99,North,0,6.9,8.3,73,0.00,,,0.32,meteobridge,2013-06-19 12:54:00,
2013-06-19 09:00:00,77.9,68.9,29.99,North,0,4.5,5.4,74,0.00,,,0.32,meteobridge,2013-06-19 13:00:00,
2013-06-19 09:05:00,78.3,68.9,29.99,North,0,6.9,8.3,73,0.00,,,0.32,meteobridge,2013-06-19 13:05:00,
2013-06-19 09:10:00,77.5,68.9,29.99,North,0,9.2,9.2,75,0.00,,,0.32,meteobridge,2013-06-19 13:10:00,
2013-06-19 09:15:00,77.2,68.7,30.00,North,0,9.2,9.8,75,0.00,,,0.32,meteobridge,2013-06-19 13:15:00,
2013-06-19 09:20:00,77.4,68.4,29.99,North,0,9.2,9.2,74,0.00,,,0.32,meteobridge,2013-06-19 13:20:00,
2013-06-19 09:25:00,78.3,68.9,29.99,North,0,9.2,9.8,73,0.00,,,0.32,meteobridge,2013-06-19 13:25:00,
2013-06-19 09:31:00,77.5,67.8,30.00,North,0,9.2,9.2,72,0.00,,,0.32,meteobridge,2013-06-19 13:31:00,
2013-06-19 09:36:00,77.7,68.4,29.99,North,0,7.6,7.6,73,0.00,,,0.32,meteobridge,2013-06-19 13:36:00,
2013-06-19 09:41:00,79.2,68.2,29.99,North,0,5.4,9.8,69,0.00,,,0.32,meteobridge,2013-06-19 13:41:00,
2013-06-19 09:46:00,79.5,68.0,30.00,North,0,7.6,7.6,68,0.00,,,0.32,meteobridge,2013-06-19 13:46:00,
2013-06-19 09:51:00,78.6,66.7,30.00,North,0,5.4,8.3,67,0.00,,,0.32,meteobridge,2013-06-19 13:51:00,
2013-06-19 09:56:00,80.6,68.2,29.99,North,0,6.0,6.0,66,0.00,,,0.32,meteobridge,2013-06-19 13:56:00,
2013-06-19 10:02:00,79.9,65.3,29.99,North,0,6.0,8.3,61,0.00,,,0.32,meteobridge,2013-06-19 14:02:00,
2013-06-19 10:07:00,79.5,64.9,29.99,North,0,7.6,9.8,61,0.00,,,0.32,meteobridge,2013-06-19 14:07:00,
2013-06-19 10:12:00,80.8,65.1,29.99,NE,45,5.4,9.2,59,0.00,,,0.32,meteobridge,2013-06-19 14:12:00,
2013-06-19 10:17:00,81.1,64.4,29.99,North,0,9.2,9.2,57,0.00,,,0.32,meteobridge,2013-06-19 14:17:00,
2013-06-19 10:22:00,81.7,66.0,30.00,NW,315,6.9,8.3,59,0.00,,,0.32,meteobridge,2013-06-19 14:22:00,
2013-06-19 10:27:00,80.6,65.5,30.00,North,0,11.4,11.4,60,0.00,,,0.32,meteobridge,2013-06-19 14:27:00,
2013-06-19 10:33:00,78.8,65.7,30.00,North,0,14.5,14.5,64,0.00,,,0.32,meteobridge,2013-06-19 14:33:00,
2013-06-19 10:38:00,78.6,63.1,30.00,North,0,9.2,12.1,59,0.00,,,0.32,meteobridge,2013-06-19 14:38:00,
2013-06-19 10:43:00,78.6,63.5,30.01,North,0,6.0,12.1,60,0.00,,,0.32,meteobridge,2013-06-19 14:43:00,
2013-06-19 10:48:00,79.2,64.9,30.00,NW,315,4.5,9.8,62,0.00,,,0.32,meteobridge,2013-06-19 14:48:00,
2013-06-19 10:53:00,79.5,62.4,30.01,WNW,293,11.4,11.4,56,0.00,,,0.32,meteobridge,2013-06-19 14:53:00,
2013-06-19 10:58:00,79.5,63.5,30.01,North,0,6.9,9.2,58,0.00,,,0.32,meteobridge,2013-06-19 14:58:00,
2013-06-19 11:04:00,80.2,63.7,30.01,NE,45,8.3,9.2,57,0.00,,,0.32,meteobridge,2013-06-19 15:04:00,
2013-06-19 11:09:00,80.6,64.0,30.01,North,0,9.2,11.4,57,0.00,,,0.32,meteobridge,2013-06-19 15:09:00,
2013-06-19 11:14:00,81.0,64.8,30.01,North,0,6.9,6.9,58,0.00,,,0.32,meteobridge,2013-06-19 15:14:00,
2013-06-19 11:19:00,81.3,65.7,30.01,North,0,9.8,9.8,59,0.00,,,0.32,meteobridge,2013-06-19 15:19:00,
2013-06-19 11:24:00,80.6,63.5,30.02,NNW,338,10.7,10.7,56,0.00,,,0.32,meteobridge,2013-06-19 15:24:00,
2013-06-19 11:29:00,79.9,65.7,30.02,NNE,23,4.5,6.0,62,0.00,,,0.32,meteobridge,2013-06-19 15:29:00,
2013-06-19 11:35:00,80.1,63.9,30.01,North,0,6.0,7.6,58,0.00,,,0.32,meteobridge,2013-06-19 15:35:00,
2013-06-19 11:40:00,80.8,64.0,30.02,North,0,9.8,9.8,57,0.00,,,0.32,meteobridge,2013-06-19 15:40:00,
2013-06-19 11:45:00,80.6,64.0,30.02,North,0,9.2,9.2,57,0.00,,,0.32,meteobridge,2013-06-19 15:45:00,
2013-06-19 11:50:00,80.4,64.2,30.02,NNE,23,6.9,7.6,58,0.00,,,0.32,meteobridge,2013-06-19 15:50:00,
2013-06-19 11:55:00,80.4,64.2,30.02,NW,315,2.2,9.8,58,0.00,,,0.32,meteobridge,2013-06-19 15:55:00,
2013-06-19 12:01:00,82.2,63.9,30.02,North,0,6.0,6.9,54,0.00,,,0.32,meteobridge,2013-06-19 16:01:00,
2013-06-19 12:06:00,82.0,63.1,30.02,North,0,6.9,6.9,53,0.00,,,0.32,meteobridge,2013-06-19 16:06:00,
2013-06-19 12:11:00,82.2,62.8,30.02,NW,315,7.6,7.6,52,0.00,,,0.32,meteobridge,2013-06-19 16:11:00,
2013-06-19 12:16:00,82.4,62.4,30.03,North,0,6.0,7.6,51,0.00,,,0.32,meteobridge,2013-06-19 16:16:00,
2013-06-19 12:21:00,82.0,62.1,30.02,North,0,7.6,7.6,51,0.00,,,0.32,meteobridge,2013-06-19 16:21:00,
2013-06-19 12:26:00,84.2,63.5,30.02,North,0,9.2,9.2,50,0.00,,,0.32,meteobridge,2013-06-19 16:26:00,
2013-06-19 12:32:00,82.9,63.0,30.02,NNE,23,8.3,10.7,51,0.00,,,0.32,meteobridge,2013-06-19 16:32:00,
2013-06-19 12:37:00,82.6,62.6,30.02,NW,315,2.2,5.4,51,0.00,,,0.32,meteobridge,2013-06-19 16:37:00,
2013-06-19 12:42:00,84.4,62.6,30.02,NW,315,6.0,6.0,48,0.00,,,0.32,meteobridge,2013-06-19 16:42:00,
2013-06-19 12:47:00,83.5,63.0,30.02,North,0,6.9,9.2,50,0.00,,,0.32,meteobridge,2013-06-19 16:47:00,
2013-06-19 12:52:00,83.5,63.5,30.02,NW,315,8.3,8.3,51,0.00,,,0.32,meteobridge,2013-06-19 16:52:00,
2013-06-19 12:57:00,84.2,64.0,30.02,South,180,5.4,8.3,51,0.00,,,0.32,meteobridge,2013-06-19 16:57:00,
2013-06-19 13:03:00,85.6,64.9,30.03,North,0,4.5,4.5,50,0.00,,,0.32,meteobridge,2013-06-19 17:03:00,
2013-06-19 13:08:00,86.2,64.8,30.03,North,0,4.5,5.4,49,0.00,,,0.32,meteobridge,2013-06-19 17:08:00,
2013-06-19 13:13:00,84.4,64.8,30.03,North,0,6.9,6.9,52,0.00,,,0.32,meteobridge,2013-06-19 17:13:00,
2013-06-19 13:18:00,84.2,64.0,30.03,NE,45,3.1,6.0,51,0.00,,,0.32,meteobridge,2013-06-19 17:18:00,
2013-06-19 13:23:00,84.2,64.6,30.03,East,90,1.6,2.2,52,0.00,,,0.32,meteobridge,2013-06-19 17:23:00,
2013-06-19 13:28:00,84.9,65.3,30.03,East,90,1.6,5.4,52,0.00,,,0.32,meteobridge,2013-06-19 17:28:00,
2013-06-19 13:34:00,85.1,64.9,30.03,NNE,23,7.6,7.6,51,0.00,,,0.32,meteobridge,2013-06-19 17:34:00,
2013-06-19 13:39:00,83.8,66.0,30.03,NE,45,6.9,9.2,55,0.00,,,0.32,meteobridge,2013-06-19 17:39:00,
2013-06-19 13:44:00,84.2,66.7,30.03,North,0,2.2,6.9,56,0.00,,,0.32,meteobridge,2013-06-19 17:44:00,
2013-06-19 13:49:00,86.2,65.8,30.03,NNW,338,9.2,9.2,51,0.00,,,0.32,meteobridge,2013-06-19 17:49:00,
2013-06-19 13:54:00,83.8,66.0,30.03,NE,45,6.0,9.8,55,0.00,,,0.32,meteobridge,2013-06-19 17:54:00,
2013-06-19 13:59:00,84.2,65.7,30.03,North,0,8.3,8.3,54,0.00,,,0.32,meteobridge,2013-06-19 17:59:00,
2013-06-19 14:05:00,83.5,65.7,30.03,South,180,3.1,6.9,55,0.00,,,0.32,meteobridge,2013-06-19 18:05:00,
2013-06-19 14:10:00,84.7,65.7,30.03,SE,135,12.1,12.1,53,0.00,,,0.32,meteobridge,2013-06-19 18:10:00,
2013-06-19 14:15:00,84.0,66.6,30.03,NW,315,7.6,7.6,56,0.00,,,0.32,meteobridge,2013-06-19 18:15:00,
2013-06-19 14:20:00,84.6,66.0,30.03,North,0,10.7,10.7,54,0.00,,,0.32,meteobridge,2013-06-19 18:20:00,
2013-06-19 14:25:00,84.6,66.6,30.03,North,0,5.4,6.0,55,0.00,,,0.32,meteobridge,2013-06-19 18:25:00,
2013-06-19 14:30:00,85.1,66.6,30.03,NW,315,2.2,3.8,54,0.00,,,0.32,meteobridge,2013-06-19 18:30:00,
2013-06-19 14:36:00,86.9,66.0,30.03,North,0,9.2,11.4,50,0.00,,,0.32,meteobridge,2013-06-19 18:36:00,
2013-06-19 14:41:00,84.7,66.2,30.03,North,0,7.6,9.2,54,0.00,,,0.32,meteobridge,2013-06-19 18:41:00,
2013-06-19 14:46:00,85.1,66.6,30.03,North,0,5.4,5.4,54,0.00,,,0.32,meteobridge,2013-06-19 18:46:00,
2013-06-19 14:51:00,85.5,66.4,30.02,East,90,3.1,6.0,53,0.00,,,0.32,meteobridge,2013-06-19 18:51:00,
2013-06-19 14:56:00,85.5,66.9,30.03,North,0,5.4,5.4,54,0.00,,,0.32,meteobridge,2013-06-19 18:56:00,
2013-06-19 15:02:00,85.3,67.8,30.03,NNW,338,3.8,5.4,56,0.00,,,0.32,meteobridge,2013-06-19 19:02:00,
2013-06-19 15:07:00,87.1,67.8,30.03,East,90,3.8,3.8,53,0.00,,,0.32,meteobridge,2013-06-19 19:07:00,
2013-06-19 15:12:00,87.6,66.7,30.03,North,0,5.4,7.6,50,0.00,,,0.32,meteobridge,2013-06-19 19:12:00,
2013-06-19 15:17:00,86.7,66.4,30.03,North,0,3.1,3.1,51,0.00,,,0.32,meteobridge,2013-06-19 19:17:00,
2013-06-19 15:22:00,85.5,66.9,30.03,East,90,9.8,9.8,54,0.00,,,0.32,meteobridge,2013-06-19 19:22:00,
2013-06-19 15:28:00,84.0,67.1,30.02,SE,135,5.4,9.2,57,0.00,,,0.32,meteobridge,2013-06-19 19:28:00,
2013-06-19 15:33:00,84.6,66.0,30.02,SE,135,1.6,5.4,54,0.00,,,0.32,meteobridge,2013-06-19 19:33:00,
2013-06-19 15:38:00,84.7,67.3,30.02,East,90,6.0,6.0,56,0.00,,,0.32,meteobridge,2013-06-19 19:38:00,
2013-06-19 15:43:00,84.0,66.6,30.03,NW,315,3.1,3.8,56,0.00,,,0.32,meteobridge,2013-06-19 19:43:00,
2013-06-19 15:48:00,82.9,66.6,30.03,NE,45,4.5,8.3,58,0.00,,,0.32,meteobridge,2013-06-19 19:48:00,
2013-06-19 15:53:00,83.1,66.7,30.02,NE,45,3.1,3.8,58,0.00,,,0.32,meteobridge,2013-06-19 19:53:00,
2013-06-19 15:59:00,83.8,67.5,30.02,East,90,3.8,6.0,58,0.00,,,0.32,meteobridge,2013-06-19 19:59:00,
2013-06-19 16:04:00,83.7,66.7,30.02,NE,45,6.0,11.4,57,0.00,,,0.32,meteobridge,2013-06-19 20:04:00,
2013-06-19 16:09:00,82.6,66.7,30.02,North,0,9.2,9.2,59,0.00,,,0.32,meteobridge,2013-06-19 20:09:00,
2013-06-19 16:14:00,82.6,67.3,30.03,North,0,7.6,8.3,60,0.00,,,0.32,meteobridge,2013-06-19 20:14:00,
2013-06-19 16:19:00,82.9,66.2,30.02,North,0,8.3,10.7,57,0.00,,,0.32,meteobridge,2013-06-19 20:19:00,
2013-06-19 16:24:00,84.0,67.1,30.02,West,270,1.6,5.4,57,0.00,,,0.32,meteobridge,2013-06-19 20:24:00,
2013-06-19 16:30:00,85.1,67.1,30.02,North,0,4.5,6.9,55,0.00,,,0.32,meteobridge,2013-06-19 20:30:00,
2013-06-19 16:35:00,85.1,66.0,30.02,South,180,3.1,7.6,53,0.00,,,0.32,meteobridge,2013-06-19 20:35:00,
2013-06-19 16:40:00,85.3,65.7,30.02,NW,315,9.2,9.2,52,0.00,,,0.32,meteobridge,2013-06-19 20:40:00,
2013-06-19 16:45:00,85.6,67.1,30.02,North,0,4.5,6.0,54,0.00,,,0.32,meteobridge,2013-06-19 20:45:00,
2013-06-19 16:50:00,85.1,66.0,30.01,NW,315,6.9,8.3,53,0.00,,,0.32,meteobridge,2013-06-19 20:50:00,
2013-06-19 16:55:00,84.4,65.8,30.01,East,90,6.0,6.9,54,0.00,,,0.32,meteobridge,2013-06-19 20:55:00,
2013-06-19 17:01:00,85.8,66.7,30.02,SE,135,6.0,10.7,53,0.00,,,0.32,meteobridge,2013-06-19 21:01:00,
2013-06-19 17:06:00,85.6,66.0,30.01,East,90,6.0,7.6,52,0.00,,,0.32,meteobridge,2013-06-19 21:06:00,
2013-06-19 17:11:00,84.6,66.0,30.01,NE,45,4.5,5.4,54,0.00,,,0.32,meteobridge,2013-06-19 21:11:00,
2013-06-19 17:16:00,83.7,65.8,30.02,ENE,68,5.4,7.6,55,0.00,,,0.32,meteobridge,2013-06-19 21:16:00,
2013-06-19 17:21:00,83.3,66.0,30.01,North,0,8.3,8.3,56,0.00,,,0.32,meteobridge,2013-06-19 21:21:00,
2013-06-19 17:26:00,82.6,66.4,30.02,North,0,6.9,7.6,58,0.00,,,0.32,meteobridge,2013-06-19 21:26:00,
2013-06-19 17:32:00,82.2,67.5,30.02,East,90,7.6,7.6,61,0.00,,,0.32,meteobridge,2013-06-19 21:32:00,
2013-06-19 17:37:00,81.9,65.7,30.02,ENE,68,6.0,7.6,58,0.00,,,0.32,meteobridge,2013-06-19 21:37:00,
2013-06-19 17:42:00,82.0,65.8,30.02,East,90,4.5,5.4,58,0.00,,,0.32,meteobridge,2013-06-19 21:42:00,
2013-06-19 17:47:00,82.6,66.7,30.02,East,90,4.5,6.0,59,0.00,,,0.32,meteobridge,2013-06-19 21:47:00,
2013-06-19 17:52:00,82.6,66.4,30.02,East,90,3.8,4.5,58,0.00,,,0.32,meteobridge,2013-06-19 21:52:00,
2013-06-19 17:57:00,82.2,67.5,30.02,NE,45,6.9,7.6,61,0.00,,,0.32,meteobridge,2013-06-19 21:57:00,
2013-06-19 18:03:00,81.5,67.3,30.03,East,90,3.1,3.8,62,0.00,,,0.32,meteobridge,2013-06-19 22:03:00,
2013-06-19 18:08:00,81.0,67.1,30.02,SE,135,4.5,6.0,63,0.00,,,0.32,meteobridge,2013-06-19 22:08:00,
2013-06-19 18:13:00,80.4,67.6,30.03,East,90,4.5,5.4,65,0.00,,,0.32,meteobridge,2013-06-19 22:13:00,
2013-06-19 18:18:00,80.1,67.3,30.03,SE,135,4.5,9.2,65,0.00,,,0.32,meteobridge,2013-06-19 22:18:00,
2013-06-19 18:23:00,80.1,67.6,30.03,East,90,5.4,5.4,66,0.00,,,0.32,meteobridge,2013-06-19 22:23:00,
2013-06-19 18:28:00,80.1,67.6,30.03,East,90,4.5,6.0,66,0.00,,,0.32,meteobridge,2013-06-19 22:28:00,
2013-06-19 18:34:00,80.4,68.0,30.03,East,90,6.9,6.9,66,0.00,,,0.32,meteobridge,2013-06-19 22:34:00,
2013-06-19 18:39:00,80.2,67.8,30.03,North,0,5.4,6.9,66,0.00,,,0.32,meteobridge,2013-06-19 22:39:00,
2013-06-19 18:44:00,79.7,67.3,30.03,East,90,5.4,6.0,66,0.00,,,0.32,meteobridge,2013-06-19 22:44:00,
2013-06-19 18:49:00,79.3,67.8,30.03,SE,135,3.8,6.0,68,0.00,,,0.32,meteobridge,2013-06-19 22:49:00,
2013-06-19 18:54:00,79.0,67.5,30.04,East,90,3.8,6.0,68,0.00,,,0.32,meteobridge,2013-06-19 22:54:00,
2013-06-19 18:59:00,78.8,67.3,30.04,East,90,6.0,6.0,68,0.00,,,0.32,meteobridge,2013-06-19 22:59:00,
2013-06-19 19:05:00,78.6,67.6,30.04,East,90,4.5,5.4,69,0.00,,,0.32,meteobridge,2013-06-19 23:05:00,
2013-06-19 19:10:00,78.4,67.8,30.04,SE,135,2.2,4.5,70,0.00,,,0.32,meteobridge,2013-06-19 23:10:00,
2013-06-19 19:15:00,78.6,68.0,30.04,East,90,5.4,5.4,70,0.00,,,0.32,meteobridge,2013-06-19 23:15:00,
2013-06-19 19:20:00,78.6,68.4,30.05,East,90,3.1,3.8,71,0.00,,,0.32,meteobridge,2013-06-19 23:20:00,
2013-06-19 19:25:00,78.4,68.2,30.05,East,90,3.1,3.8,71,0.00,,,0.32,meteobridge,2013-06-19 23:25:00,
2013-06-19 19:30:00,78.4,68.7,30.05,East,90,3.1,3.1,72,0.00,,,0.32,meteobridge,2013-06-19 23:30:00,
2013-06-19 19:36:00,78.4,69.1,30.05,East,90,3.1,3.1,73,0.00,,,0.32,meteobridge,2013-06-19 23:36:00,
2013-06-19 19:41:00,79.0,68.7,30.05,SE,135,3.1,3.1,71,0.00,,,0.32,meteobridge,2013-06-19 23:41:00,
2013-06-19 19:46:00,79.2,68.5,30.05,East,90,3.1,3.1,70,0.00,,,0.32,meteobridge,2013-06-19 23:46:00,
2013-06-19 19:51:00,78.8,68.2,30.04,East,90,3.8,3.8,70,0.00,,,0.32,meteobridge,2013-06-19 23:51:00,
2013-06-19 19:56:00,78.6,68.9,30.05,East,90,4.5,4.5,72,0.00,,,0.32,meteobridge,2013-06-19 23:56:00,
2013-06-19 20:01:00,78.1,68.7,30.05,East,90,3.8,3.8,73,0.00,,,0.00,meteobridge,2013-06-20 00:01:00,
2013-06-19 20:07:00,77.5,68.2,30.05,SE,135,3.8,3.8,73,0.00,,,0.00,meteobridge,2013-06-20 00:07:00,
2013-06-19 20:12:00,77.2,68.2,30.06,ESE,113,2.2,2.2,74,0.00,,,0.00,meteobridge,2013-06-20 00:12:00,
2013-06-19 20:17:00,77.0,68.5,30.06,SE,135,2.2,2.2,75,0.00,,,0.00,meteobridge,2013-06-20 00:17:00,
2013-06-19 20:22:00,76.8,69.1,30.06,East,90,2.2,3.1,77,0.00,,,0.00,meteobridge,2013-06-20 00:22:00,
2013-06-19 20:27:00,76.3,68.9,30.06,East,90,2.2,2.2,78,0.00,,,0.00,meteobridge,2013-06-20 00:27:00,
2013-06-19 20:32:00,75.7,68.7,30.06,East,90,1.6,2.2,79,0.00,,,0.00,meteobridge,2013-06-20 00:32:00,
2013-06-19 20:38:00,75.4,69.1,30.06,East,90,2.2,2.2,81,0.00,,,0.00,meteobridge,2013-06-20 00:38:00,
2013-06-19 20:43:00,74.7,69.1,30.06,NE,45,1.6,1.6,83,0.00,,,0.00,meteobridge,2013-06-20 00:43:00,
2013-06-19 20:48:00,74.7,69.8,30.07,East,90,2.2,3.1,85,0.00,,,0.00,meteobridge,2013-06-20 00:48:00,
2013-06-19 20:53:00,73.9,69.4,30.07,NE,45,3.1,3.1,86,0.00,,,0.00,meteobridge,2013-06-20 00:53:00,
2013-06-19 20:58:00,73.6,69.1,30.07,SE,135,1.6,2.2,86,0.00,,,0.00,meteobridge,2013-06-20 00:58:00,
2013-06-19 21:03:00,73.6,69.4,30.07,SE,135,1.6,1.6,87,0.00,,,0.00,meteobridge,2013-06-20 01:03:00,
2013-06-19 21:09:00,73.4,69.3,30.07,SE,135,2.2,2.2,87,0.00,,,0.00,meteobridge,2013-06-20 01:09:00,
2013-06-19 21:14:00,73.4,69.3,30.08,East,90,2.2,2.2,87,0.00,,,0.00,meteobridge,2013-06-20 01:14:00,
2013-06-19 21:19:00,73.2,68.7,30.08,East,90,3.1,3.1,86,0.00,,,0.00,meteobridge,2013-06-20 01:19:00,
2013-06-19 21:24:00,72.9,68.7,30.08,SE,135,1.6,3.1,87,0.00,,,0.00,meteobridge,2013-06-20 01:24:00,
2013-06-19 21:29:00,72.7,68.5,30.08,SE,135,2.2,2.2,87,0.00,,,0.00,meteobridge,2013-06-20 01:29:00,
2013-06-19 21:34:00,72.7,68.9,30.08,SE,135,2.2,3.8,88,0.00,,,0.00,meteobridge,2013-06-20 01:34:00,
2013-06-19 21:40:00,72.3,68.9,30.09,East,90,1.6,1.6,89,0.00,,,0.00,meteobridge,2013-06-20 01:40:00,
2013-06-19 21:45:00,72.1,68.7,30.09,East,90,3.1,3.1,89,0.00,,,0.00,meteobridge,2013-06-20 01:45:00,
2013-06-19 21:50:00,72.1,69.1,30.09,SE,135,2.2,2.2,90,0.00,,,0.00,meteobridge,2013-06-20 01:50:00,
2013-06-19 21:55:00,72.0,68.9,30.09,SE,135,1.6,1.6,90,0.00,,,0.00,meteobridge,2013-06-20 01:55:00,
2013-06-19 22:00:00,72.0,68.9,30.10,East,90,2.2,2.2,90,0.00,,,0.00,meteobridge,2013-06-20 02:00:00,
2013-06-19 22:06:00,72.0,68.9,30.10,East,90,1.6,1.6,90,0.00,,,0.00,meteobridge,2013-06-20 02:06:00,
2013-06-19 22:11:00,72.1,68.7,30.11,North,0,2.2,3.1,89,0.00,,,0.00,meteobridge,2013-06-20 02:11:00,
2013-06-19 22:16:00,72.1,68.4,30.11,North,0,2.2,3.8,88,0.00,,,0.00,meteobridge,2013-06-20 02:16:00,
2013-06-19 22:21:00,72.1,68.4,30.11,East,90,1.6,2.2,88,0.00,,,0.00,meteobridge,2013-06-20 02:21:00,
2013-06-19 22:26:00,72.1,68.7,30.11,East,90,3.1,3.1,89,0.00,,,0.00,meteobridge,2013-06-20 02:26:00,
2013-06-19 22:31:00,72.1,68.7,30.11,East,90,3.8,3.8,89,0.00,,,0.00,meteobridge,2013-06-20 02:31:00,
2013-06-19 22:37:00,72.0,68.5,30.10,East,90,2.2,3.1,89,0.00,,,0.00,meteobridge,2013-06-20 02:37:00,
2013-06-19 22:42:00,71.8,68.4,30.11,SE,135,3.1,3.1,89,0.00,,,0.00,meteobridge,2013-06-20 02:42:00,
2013-06-19 22:47:00,71.6,68.2,30.11,East,90,3.1,3.1,89,0.00,,,0.00,meteobridge,2013-06-20 02:47:00,
2013-06-19 22:52:00,71.4,68.4,30.11,SE,135,3.1,3.1,90,0.00,,,0.00,meteobridge,2013-06-20 02:52:00,
2013-06-19 22:57:00,71.4,68.4,30.11,East,90,1.6,1.6,90,0.00,,,0.00,meteobridge,2013-06-20 02:57:00,
2013-06-19 23:02:00,71.1,68.0,30.11,SE,135,2.2,2.2,90,0.00,,,0.00,meteobridge,2013-06-20 03:02:00,
2013-06-19 23:08:00,71.1,68.4,30.11,East,90,3.1,3.8,91,0.00,,,0.00,meteobridge,2013-06-20 03:08:00,
2013-06-19 23:13:00,71.1,68.4,30.11,SE,135,2.2,3.1,91,0.00,,,0.00,meteobridge,2013-06-20 03:13:00,
2013-06-19 23:18:00,70.9,68.2,30.11,ESE,113,1.6,1.6,91,0.00,,,0.00,meteobridge,2013-06-20 03:18:00,
2013-06-19 23:23:00,70.9,68.2,30.11,SE,135,3.8,3.8,91,0.00,,,0.00,meteobridge,2013-06-20 03:23:00,
2013-06-19 23:28:00,70.9,68.4,30.11,East,90,1.6,2.2,92,0.00,,,0.00,meteobridge,2013-06-20 03:28:00,
2013-06-19 23:33:00,70.7,68.2,30.11,East,90,0.7,0.7,92,0.00,,,0.00,meteobridge,2013-06-20 03:33:00,
2013-06-19 23:39:00,70.5,68.0,30.11,SE,135,1.6,1.6,92,0.00,,,0.00,meteobridge,2013-06-20 03:39:00,
2013-06-19 23:44:00,70.5,68.0,30.11,SE,135,1.6,1.6,92,0.00,,,0.00,meteobridge,2013-06-20 03:44:00,
2013-06-19 23:49:00,70.5,68.4,30.11,East,90,3.8,3.8,93,0.00,,,0.00,meteobridge,2013-06-20 03:49:00,
2013-06-19 23:54:00,70.5,68.4,30.11,East,90,1.6,3.1,93,0.00,,,0.00,meteobridge,2013-06-20 03:54:00,
2013-06-19 23:59:00,70.5,68.4,30.11,SE,135,3.1,3.1,93,0.00,,,0.00,meteobridge,2013-06-20 03:59:00,